createdAt,value
2024-02-20T00:00:39.970Z,33.90
2024-02-20T00:03:28.112Z,30.00
2024-02-20T00:05:56.397Z,29.70
2024-02-20T00:08:24.611Z,29.90
2024-02-20T00:10:52.856Z,32.10
2024-02-20T00:13:22.456Z,32.90
2024-02-20T00:15:51.040Z,34.30
2024-02-20T00:18:19.621Z,36.60
2024-02-20T00:20:48.105Z,41.30
2024-02-20T00:23:16.254Z,39.90
2024-02-20T00:25:47.224Z,39.50
2024-02-20T00:28:16.401Z,41.70
2024-02-20T00:30:45.688Z,39.30
2024-02-20T00:33:14.273Z,41.00
2024-02-20T00:35:42.499Z,39.90
2024-02-20T00:38:10.733Z,40.90
2024-02-20T00:40:40.867Z,37.90
2024-02-20T00:43:09.707Z,39.50
2024-02-20T00:45:38.405Z,39.50
2024-02-20T00:48:07.502Z,38.10
2024-02-20T00:50:35.688Z,38.70
2024-02-20T00:53:04.401Z,40.50
2024-02-20T00:55:32.608Z,40.20
2024-02-20T00:58:01.299Z,42.20
2024-02-20T01:00:29.768Z,40.30
2024-02-20T01:03:00.065Z,40.70
2024-02-20T01:05:28.560Z,42.10
2024-02-20T01:07:58.403Z,40.20
2024-02-20T01:10:26.967Z,36.40
2024-02-20T01:12:55.659Z,32.80
2024-02-20T01:15:24.219Z,34.40
2024-02-20T01:17:54.341Z,33.70
2024-02-20T01:20:22.710Z,33.00
2024-02-20T01:22:51.757Z,29.00
2024-02-20T01:25:19.937Z,32.20
2024-02-20T01:27:48.172Z,32.20
2024-02-20T01:30:17.726Z,33.60
2024-02-20T01:32:45.967Z,34.70
2024-02-20T01:35:15.042Z,37.70
2024-02-20T01:37:43.456Z,39.00
2024-02-20T01:40:12.506Z,37.50
2024-02-20T01:42:40.675Z,37.50
2024-02-20T01:45:10.011Z,34.60
2024-02-20T01:47:38.445Z,35.30
2024-02-20T01:50:08.333Z,34.70
2024-02-20T01:52:36.802Z,32.80
2024-02-20T01:55:05.859Z,31.70
2024-02-20T01:57:35.236Z,33.50
2024-02-20T02:00:06.133Z,32.40
2024-02-20T02:02:40.138Z,30.00
2024-02-20T02:05:08.946Z,30.50
2024-02-20T02:07:37.391Z,28.60
2024-02-20T02:10:06.500Z,29.30
2024-02-20T02:12:35.182Z,28.50
2024-02-20T02:15:03.774Z,29.40
2024-02-20T02:17:31.962Z,27.70
2024-02-20T02:20:00.343Z,27.30
2024-02-20T02:22:28.638Z,28.30
2024-02-20T02:24:56.983Z,28.20
2024-02-20T02:27:25.175Z,30.40
2024-02-20T02:29:53.635Z,29.10
2024-02-20T02:32:21.896Z,31.50
2024-02-20T02:34:50.585Z,31.70
2024-02-20T02:37:18.886Z,30.70
2024-02-20T02:39:47.438Z,29.00
2024-02-20T02:42:15.849Z,27.80
2024-02-20T02:44:45.267Z,27.80
2024-02-20T02:47:13.987Z,28.30
2024-02-20T02:49:42.233Z,25.90
2024-02-20T02:52:10.415Z,24.40
2024-02-20T02:54:38.584Z,24.20
2024-02-20T02:57:07.644Z,25.00
2024-02-20T02:59:36.006Z,23.70
2024-02-20T03:02:05.055Z,23.60
2024-02-20T03:04:33.823Z,24.20
2024-02-20T03:07:02.300Z,24.50
2024-02-20T03:09:30.533Z,24.20
2024-02-20T03:11:59.348Z,23.90
2024-02-20T03:14:27.636Z,23.00
2024-02-20T03:16:55.839Z,22.50
2024-02-20T03:19:24.283Z,22.70
2024-02-20T03:21:53.328Z,24.60
2024-02-20T03:24:21.865Z,26.30
2024-02-20T03:26:50.072Z,26.40
2024-02-20T03:29:18.313Z,26.70
2024-02-20T03:31:46.454Z,24.80
2024-02-20T03:34:14.845Z,24.70
2024-02-20T03:36:43.114Z,23.80
2024-02-20T03:39:11.918Z,24.40
2024-02-20T03:41:40.153Z,24.20
2024-02-20T03:44:08.431Z,24.70
2024-02-20T03:46:37.397Z,24.10
2024-02-20T03:49:05.850Z,26.40
2024-02-20T03:51:34.407Z,26.00
2024-02-20T03:54:02.602Z,26.00
2024-02-20T03:56:30.802Z,25.60
2024-02-20T03:58:58.958Z,25.50
2024-02-20T04:01:27.304Z,25.20
2024-02-20T04:03:55.638Z,25.00
2024-02-20T04:06:23.970Z,26.10
2024-02-20T04:08:52.743Z,24.20
2024-02-20T04:11:21.269Z,23.60
2024-02-20T04:13:49.404Z,25.00
2024-02-20T04:16:17.724Z,26.60
2024-02-20T04:18:46.162Z,27.50
2024-02-20T04:21:14.428Z,26.90
2024-02-20T04:23:42.619Z,28.00
2024-02-20T04:26:10.707Z,29.20
2024-02-20T04:28:38.956Z,28.20
2024-02-20T04:31:07.134Z,27.10
2024-02-20T04:33:35.418Z,30.40
2024-02-20T04:36:03.901Z,29.60
2024-02-20T04:38:32.074Z,29.70
2024-02-20T04:41:00.968Z,26.60
2024-02-20T04:43:29.218Z,28.70
2024-02-20T04:45:57.412Z,26.80
2024-02-20T04:48:25.649Z,27.30
2024-02-20T04:50:54.704Z,28.30
2024-02-20T04:53:22.994Z,27.50
2024-02-20T04:55:51.192Z,26.00
2024-02-20T04:58:19.464Z,26.90
2024-02-20T05:00:47.814Z,28.00
2024-02-20T05:03:16.228Z,28.00
2024-02-20T05:05:44.461Z,27.20
2024-02-20T05:08:12.620Z,27.70
2024-02-20T05:10:40.904Z,27.40
2024-02-20T05:13:09.117Z,27.20
2024-02-20T05:15:37.430Z,26.80
2024-02-20T05:18:06.654Z,24.90
2024-02-20T05:20:34.900Z,24.20
2024-02-20T05:23:03.391Z,26.40
2024-02-20T05:25:31.698Z,25.70
2024-02-20T05:27:59.972Z,26.50
2024-02-20T05:30:28.242Z,24.10
2024-02-20T05:32:56.431Z,24.60
2024-02-20T05:35:24.675Z,23.50
2024-02-20T05:37:52.911Z,24.60
2024-02-20T05:40:21.145Z,25.80
2024-02-20T05:42:49.352Z,26.00
2024-02-20T05:45:20.769Z,25.50
2024-02-20T05:47:49.121Z,25.00
2024-02-20T05:50:17.961Z,25.50
2024-02-20T05:52:47.372Z,26.70
2024-02-20T05:55:17.441Z,24.70
2024-02-20T05:57:45.640Z,24.10
2024-02-20T06:00:14.902Z,24.10
2024-02-20T06:02:43.245Z,24.30
2024-02-20T06:05:11.743Z,23.10
2024-02-20T06:07:40.144Z,25.30
2024-02-20T06:10:09.178Z,25.70
2024-02-20T06:12:37.386Z,27.10
2024-02-20T06:15:07.322Z,26.10
2024-02-20T06:17:35.939Z,26.50
2024-02-20T06:20:04.927Z,25.90
2024-02-20T06:22:33.984Z,28.90
2024-02-20T06:25:03.517Z,31.80
2024-02-20T06:27:31.784Z,32.80
2024-02-20T06:29:59.998Z,33.10
2024-02-20T06:32:29.549Z,37.00
2024-02-20T06:34:59.115Z,70.20
2024-02-20T06:37:27.396Z,39.10
2024-02-20T06:39:55.560Z,37.70
2024-02-20T06:42:23.868Z,30.70
2024-02-20T06:44:52.035Z,29.30
2024-02-20T06:47:20.233Z,28.90
2024-02-20T06:49:48.450Z,28.40
2024-02-20T06:52:16.690Z,31.20
2024-02-20T06:54:44.981Z,26.10
2024-02-20T06:57:13.200Z,26.20
2024-02-20T06:59:41.500Z,24.70
2024-02-20T07:02:09.807Z,23.70
2024-02-20T07:04:41.839Z,22.60
2024-02-20T07:07:10.284Z,22.30
2024-02-20T07:09:38.533Z,19.80
2024-02-20T07:12:07.760Z,24.70
2024-02-20T07:14:37.532Z,25.80
2024-02-20T07:17:05.929Z,20.90
2024-02-20T07:19:34.228Z,20.50
2024-02-20T07:22:02.480Z,18.90
2024-02-20T07:24:30.650Z,20.40
2024-02-20T07:26:58.843Z,19.40
2024-02-20T07:29:26.981Z,19.00
2024-02-20T07:31:56.550Z,20.50
2024-02-20T07:34:25.466Z,20.50
2024-02-20T07:36:55.446Z,22.20
2024-02-20T07:39:23.747Z,21.90
2024-02-20T07:41:52.783Z,20.70
2024-02-20T07:44:20.990Z,21.20
2024-02-20T07:46:49.604Z,22.10
2024-02-20T07:49:18.041Z,23.10
2024-02-20T07:51:46.350Z,28.10
2024-02-20T07:54:14.846Z,32.80
2024-02-20T07:56:43.763Z,29.80
2024-02-20T07:59:12.208Z,28.70
2024-02-20T08:01:40.721Z,32.20
2024-02-20T08:04:09.166Z,30.40
2024-02-20T08:06:37.528Z,29.70
2024-02-20T08:09:06.623Z,30.60
2024-02-20T08:11:35.517Z,31.50
2024-02-20T08:14:03.795Z,34.10
2024-02-20T08:16:32.915Z,35.30
2024-02-20T08:19:02.347Z,31.70
2024-02-20T08:21:30.633Z,28.90
2024-02-20T08:24:00.001Z,30.40
2024-02-20T08:26:28.637Z,28.20
2024-02-20T08:28:56.930Z,26.60
2024-02-20T08:31:25.212Z,26.90
2024-02-20T08:33:53.425Z,26.90
2024-02-20T08:36:22.143Z,27.30
2024-02-20T08:38:50.546Z,27.80
2024-02-20T08:41:18.704Z,27.70
2024-02-20T08:43:49.783Z,28.30
2024-02-20T08:46:19.077Z,27.50
2024-02-20T08:48:48.122Z,27.00
2024-02-20T08:51:17.074Z,25.40
2024-02-20T08:53:46.696Z,25.60
2024-02-20T08:56:15.098Z,27.00
2024-02-20T08:58:43.403Z,27.10
2024-02-20T09:01:11.649Z,27.70
2024-02-20T09:03:39.874Z,26.90
2024-02-20T09:06:08.262Z,23.90
2024-02-20T09:08:36.489Z,24.80
2024-02-20T09:11:05.715Z,22.30
2024-02-20T09:13:36.003Z,24.30
2024-02-20T09:16:04.890Z,22.30
2024-02-20T09:18:36.684Z,21.80
2024-02-20T09:21:08.147Z,22.50
2024-02-20T09:23:38.683Z,21.80
2024-02-20T09:26:07.723Z,22.40
2024-02-20T09:28:36.161Z,24.40
2024-02-20T09:31:04.654Z,26.20
2024-02-20T09:33:34.056Z,22.90
2024-02-20T09:36:02.521Z,22.10
2024-02-20T09:38:30.673Z,19.70
2024-02-20T09:41:01.182Z,24.10
2024-02-20T09:43:29.696Z,21.40
2024-02-20T09:46:05.427Z,21.40
2024-02-20T09:48:34.693Z,20.80
2024-02-20T09:51:03.451Z,19.60
2024-02-20T09:53:33.546Z,20.90
2024-02-20T09:56:01.881Z,20.10
2024-02-20T09:58:33.561Z,20.10
2024-02-20T10:01:06.285Z,20.00
2024-02-20T10:03:36.834Z,21.10
2024-02-20T10:06:09.406Z,22.40
2024-02-20T10:08:38.214Z,18.70
2024-02-20T10:11:07.511Z,18.40
2024-02-20T10:13:46.534Z,17.50
2024-02-20T10:16:17.334Z,16.90
2024-02-20T10:18:57.566Z,16.00
2024-02-20T10:21:30.256Z,17.40
2024-02-20T10:24:08.110Z,17.30
2024-02-20T10:26:38.422Z,16.30
2024-02-20T10:29:07.245Z,17.30
2024-02-20T10:31:35.635Z,17.20
2024-02-20T10:34:10.186Z,15.70
2024-02-20T10:36:42.887Z,16.80
2024-02-20T10:39:12.152Z,16.80
2024-02-20T10:41:40.910Z,16.10
2024-02-20T10:44:09.452Z,20.30
2024-02-20T10:46:41.387Z,16.60
2024-02-20T10:49:25.037Z,17.60
2024-02-20T10:51:56.034Z,15.00
2024-02-20T10:54:31.619Z,16.70
2024-02-20T10:57:06.981Z,15.70
2024-02-20T10:59:36.305Z,17.60
2024-02-20T11:02:04.901Z,15.60
2024-02-20T11:04:33.735Z,16.60
2024-02-20T11:07:02.840Z,16.20
2024-02-20T11:09:31.091Z,15.60
2024-02-20T11:12:10.148Z,16.20
2024-02-20T11:14:38.697Z,17.50
2024-02-20T11:17:24.674Z,16.90
2024-02-20T11:20:26.917Z,17.00
2024-02-20T11:22:55.219Z,15.50
2024-02-20T11:25:31.598Z,18.70
2024-02-20T11:27:59.963Z,17.90
2024-02-20T11:30:28.359Z,19.70
2024-02-20T11:32:57.717Z,17.80
2024-02-20T11:35:32.116Z,17.70
2024-02-20T11:38:02.328Z,18.00
2024-02-20T11:40:33.303Z,16.40
2024-02-20T11:43:07.474Z,17.30
2024-02-20T11:45:36.357Z,17.70
2024-02-20T11:48:13.501Z,18.70
2024-02-20T11:50:45.005Z,16.20
2024-02-20T11:53:16.614Z,17.90
2024-02-20T11:55:48.009Z,16.80
2024-02-20T11:58:26.534Z,19.10
2024-02-20T12:01:07.228Z,18.60
2024-02-20T12:03:38.195Z,18.40
2024-02-20T12:06:10.102Z,21.00
2024-02-20T12:08:43.228Z,22.40
2024-02-20T12:11:18.973Z,20.60
2024-02-20T12:13:51.916Z,18.90
2024-02-20T12:16:27.694Z,17.70
2024-02-20T12:19:03.614Z,18.80
2024-02-20T12:21:40.088Z,17.70
2024-02-20T12:24:12.154Z,16.90
2024-02-20T12:26:40.723Z,18.50
2024-02-20T12:29:08.879Z,17.30
2024-02-20T12:31:37.213Z,17.40
2024-02-20T12:34:06.902Z,18.30
2024-02-20T12:36:37.273Z,15.60
2024-02-20T12:39:05.767Z,16.30
2024-02-20T12:41:35.198Z,16.10
2024-02-20T12:44:04.737Z,15.80
2024-02-20T12:46:33.015Z,15.30
2024-02-20T12:49:01.488Z,16.00
2024-02-20T12:51:30.080Z,16.40
2024-02-20T12:53:58.274Z,15.80
2024-02-20T12:56:27.036Z,15.10
2024-02-20T12:58:55.303Z,16.60
2024-02-20T13:01:24.216Z,16.00
2024-02-20T13:03:52.575Z,15.30
2024-02-20T13:06:20.925Z,15.60
2024-02-20T13:08:49.177Z,16.80
2024-02-20T13:11:18.948Z,15.10
2024-02-20T13:13:48.511Z,15.30
2024-02-20T13:16:16.973Z,18.00
2024-02-20T13:18:45.810Z,17.10
2024-02-20T13:21:15.572Z,17.10
2024-02-20T13:23:44.284Z,15.90
2024-02-20T13:26:13.601Z,14.50
2024-02-20T13:28:42.401Z,14.00
2024-02-20T13:31:11.310Z,15.00
2024-02-20T13:33:39.704Z,14.50
2024-02-20T13:36:09.342Z,13.40
2024-02-20T13:38:41.381Z,14.00
2024-02-20T13:41:10.986Z,13.40
2024-02-20T13:43:42.407Z,14.30
2024-02-20T13:46:11.048Z,15.30
2024-02-20T13:48:39.398Z,13.80
2024-02-20T13:51:07.815Z,13.40
2024-02-20T13:53:36.101Z,14.10
2024-02-20T13:56:05.247Z,13.90
2024-02-20T13:58:34.082Z,13.60
2024-02-20T14:01:02.608Z,13.20
2024-02-20T14:03:31.839Z,11.40
2024-02-20T14:06:00.703Z,12.00
2024-02-20T14:08:29.094Z,11.20
2024-02-20T14:10:57.477Z,11.40
2024-02-20T14:13:26.496Z,11.60
2024-02-20T14:15:55.638Z,13.70
2024-02-20T14:18:24.329Z,11.20
2024-02-20T14:20:58.376Z,13.10
2024-02-20T14:23:26.759Z,11.60
2024-02-20T14:25:55.033Z,11.00
2024-02-20T14:28:23.452Z,11.70
2024-02-20T14:30:57.992Z,12.70
2024-02-20T14:33:31.184Z,13.40
2024-02-20T14:36:01.846Z,14.90
2024-02-20T14:38:30.222Z,14.10
2024-02-20T14:40:58.829Z,14.20
2024-02-20T14:43:27.394Z,14.60
2024-02-20T14:45:56.225Z,18.60
2024-02-20T14:48:24.916Z,18.20
2024-02-20T14:50:53.144Z,15.20
2024-02-20T14:53:21.291Z,16.70
2024-02-20T14:55:50.003Z,17.20
2024-02-20T14:58:18.758Z,17.10
2024-02-20T15:00:47.237Z,16.10
2024-02-20T15:03:17.459Z,14.80
2024-02-20T15:05:47.288Z,15.10
2024-02-20T15:08:18.376Z,12.60
2024-02-20T15:10:47.179Z,12.30
2024-02-20T15:13:16.102Z,13.70
2024-02-20T15:15:45.051Z,13.90
2024-02-20T15:18:13.253Z,13.80
2024-02-20T15:20:44.160Z,14.80
2024-02-20T15:23:13.583Z,13.20
2024-02-20T15:25:42.016Z,12.50
2024-02-20T15:28:11.687Z,12.40
2024-02-20T15:30:40.114Z,13.90
2024-02-20T15:33:08.446Z,17.90
2024-02-20T15:35:36.864Z,17.50
2024-02-20T15:38:05.574Z,24.90
2024-02-20T15:40:40.909Z,34.90
2024-02-20T15:43:12.041Z,74.70
2024-02-20T15:45:46.217Z,40.20
2024-02-20T15:48:16.592Z,27.10
2024-02-20T15:50:47.096Z,23.00
2024-02-20T15:53:16.974Z,21.50
2024-02-20T15:55:45.908Z,21.20
2024-02-20T15:58:16.315Z,19.30
2024-02-20T16:00:45.326Z,21.90
2024-02-20T16:03:13.982Z,23.00
2024-02-20T16:05:42.310Z,24.20
2024-02-20T16:08:15.955Z,22.90
2024-02-20T16:10:47.345Z,28.60
2024-02-20T16:13:16.394Z,29.40
2024-02-20T16:15:46.185Z,30.90
2024-02-20T16:18:14.509Z,28.60
2024-02-20T16:20:44.221Z,33.30
2024-02-20T16:23:13.365Z,33.50
2024-02-20T16:25:43.276Z,34.10
2024-02-20T16:28:11.986Z,35.50
2024-02-20T16:30:40.217Z,34.60
2024-02-20T16:33:08.757Z,35.70
2024-02-20T16:35:37.043Z,35.90
2024-02-20T16:38:05.522Z,32.10
2024-02-20T16:40:33.927Z,29.10
2024-02-20T16:43:02.339Z,26.80
2024-02-20T16:45:32.644Z,24.00
2024-02-20T16:48:01.230Z,21.20
2024-02-20T16:50:34.027Z,23.50
2024-02-20T16:53:04.935Z,22.00
2024-02-20T16:55:33.455Z,23.50
2024-02-20T16:58:01.988Z,25.30
2024-02-20T17:00:31.187Z,23.50
2024-02-20T17:02:59.907Z,21.60
2024-02-20T17:05:29.372Z,23.30
2024-02-20T17:07:58.389Z,21.30
2024-02-20T17:10:28.102Z,21.80
2024-02-20T17:15:24.550Z,22.70
2024-02-20T17:17:52.842Z,24.80
2024-02-20T17:20:21.230Z,23.20
2024-02-20T17:22:51.402Z,24.10
2024-02-20T17:25:22.032Z,27.30
2024-02-20T17:27:50.476Z,24.20
2024-02-20T17:30:19.545Z,22.80
2024-02-20T17:32:47.925Z,21.90
2024-02-20T17:35:16.328Z,21.60
2024-02-20T17:37:44.633Z,21.80
2024-02-20T17:40:14.314Z,23.70
2024-02-20T17:42:44.526Z,23.10
2024-02-20T17:45:17.576Z,23.30
2024-02-20T17:47:47.007Z,23.60
2024-02-20T17:50:16.417Z,21.40
2024-02-20T17:52:44.844Z,27.90
2024-02-20T17:55:13.151Z,25.00
2024-02-20T17:57:41.415Z,28.70
2024-02-20T18:00:10.227Z,25.10
2024-02-20T18:02:41.100Z,27.40
2024-02-20T18:05:09.638Z,30.40
2024-02-20T18:07:38.353Z,37.90
2024-02-20T18:10:07.294Z,36.90
2024-02-20T18:12:36.612Z,25.70
2024-02-20T18:15:08.633Z,25.20
2024-02-20T18:17:36.957Z,22.60
2024-02-20T18:20:06.119Z,24.50
2024-02-20T18:22:34.532Z,21.80
2024-02-20T18:25:04.265Z,22.80
2024-02-20T18:27:32.552Z,20.60
2024-02-20T18:30:00.736Z,25.80
2024-02-20T18:32:29.125Z,22.20
2024-02-20T18:34:57.478Z,22.60
2024-02-20T18:37:25.771Z,22.50
2024-02-20T18:39:54.391Z,23.80
2024-02-20T18:42:25.457Z,23.70
2024-02-20T18:44:53.716Z,23.10
2024-02-20T18:47:21.921Z,22.20
2024-02-20T18:49:51.487Z,23.20
2024-02-20T18:52:20.268Z,21.70
2024-02-20T18:54:48.774Z,21.70
2024-02-20T18:57:16.929Z,24.00
2024-02-20T18:59:45.034Z,25.70
2024-02-20T19:02:18.774Z,26.50
2024-02-20T19:04:56.597Z,31.30
2024-02-20T19:07:25.244Z,35.10
2024-02-20T19:09:53.936Z,29.30
2024-02-20T19:12:23.407Z,26.90
2024-02-20T19:14:52.823Z,23.90
2024-02-20T19:17:21.057Z,22.50
2024-02-20T19:19:50.280Z,23.20
2024-02-20T19:22:18.783Z,24.30
2024-02-20T19:24:47.130Z,23.00
2024-02-20T19:27:15.348Z,24.20
2024-02-20T19:29:43.527Z,24.80
2024-02-20T19:32:11.802Z,26.30
2024-02-20T19:34:43.418Z,23.80
2024-02-20T19:37:11.740Z,24.20
2024-02-20T19:39:40.165Z,22.60
2024-02-20T19:42:08.288Z,24.50
2024-02-20T19:44:39.959Z,26.20
2024-02-20T19:47:09.605Z,27.20
2024-02-20T19:49:38.463Z,27.60
2024-02-20T19:52:06.970Z,30.50
2024-02-20T19:54:35.337Z,30.40
2024-02-20T19:57:03.647Z,30.60
2024-02-20T19:59:31.917Z,34.30
2024-02-20T20:02:00.273Z,35.40
2024-02-20T20:04:28.631Z,36.90
2024-02-20T20:06:56.880Z,32.20
2024-02-20T20:09:25.261Z,30.30
2024-02-20T20:11:54.250Z,32.40
2024-02-20T20:14:24.291Z,27.90
2024-02-20T20:16:52.716Z,25.00
2024-02-20T20:19:21.157Z,28.30
2024-02-20T20:21:49.489Z,29.40
2024-02-20T20:24:18.974Z,28.00
2024-02-20T20:26:47.447Z,26.50
2024-02-20T20:29:15.906Z,31.00
2024-02-20T20:31:44.566Z,41.70
2024-02-20T20:34:12.978Z,43.50
2024-02-20T20:36:44.839Z,43.30
2024-02-20T20:39:13.450Z,34.00
2024-02-20T20:41:41.910Z,28.90
2024-02-20T20:44:10.524Z,33.40
2024-02-20T20:46:38.838Z,33.70
2024-02-20T20:49:08.166Z,29.80
2024-02-20T20:51:36.815Z,29.40
2024-02-20T20:54:05.639Z,29.90
2024-02-20T20:56:34.723Z,31.60
2024-02-20T20:59:03.509Z,31.70
2024-02-20T21:01:33.062Z,31.30
2024-02-20T21:04:04.189Z,36.90
2024-02-20T21:06:33.388Z,33.80
2024-02-20T21:09:01.847Z,29.40
2024-02-20T21:11:33.603Z,27.80
2024-02-20T21:14:05.216Z,26.20
2024-02-20T21:16:33.889Z,24.80
2024-02-20T21:19:02.232Z,24.40
2024-02-20T21:21:33.589Z,24.60
2024-02-20T21:24:03.566Z,25.60
2024-02-20T21:26:31.721Z,24.30
2024-02-20T21:28:59.944Z,24.20
2024-02-20T21:31:28.141Z,25.50
2024-02-20T21:33:56.510Z,25.20
2024-02-20T21:36:24.753Z,25.10
2024-02-20T21:38:52.946Z,28.00
2024-02-20T21:41:21.130Z,23.90
2024-02-20T21:43:49.380Z,24.20
2024-02-20T21:46:22.403Z,23.60
2024-02-20T21:48:51.314Z,21.80
2024-02-20T21:51:21.052Z,22.80
2024-02-20T21:53:51.234Z,22.80
2024-02-20T21:56:20.007Z,22.40
2024-02-20T21:58:48.357Z,22.50
2024-02-20T22:01:16.738Z,23.00
2024-02-20T22:03:45.687Z,25.80
2024-02-20T22:06:13.948Z,25.10
2024-02-20T22:08:42.363Z,27.90
2024-02-20T22:11:10.692Z,34.80
2024-02-20T22:13:40.443Z,37.10
2024-02-20T22:16:08.767Z,33.20
2024-02-20T22:18:36.946Z,34.90
2024-02-20T22:21:05.885Z,30.60
2024-02-20T22:23:34.148Z,29.30
2024-02-20T22:26:05.771Z,28.50
2024-02-20T22:28:34.361Z,28.20
2024-02-20T22:31:02.612Z,27.20
2024-02-20T22:33:30.856Z,26.90
2024-02-20T22:35:59.199Z,23.50
2024-02-20T22:38:31.564Z,24.10
2024-02-20T22:41:00.025Z,23.90
2024-02-20T22:43:28.189Z,24.60
2024-02-20T22:45:58.006Z,22.40
2024-02-20T22:48:26.523Z,23.10
2024-02-20T22:50:54.844Z,24.00
2024-02-20T22:53:25.377Z,23.50
2024-02-20T22:55:54.834Z,23.10
2024-02-20T22:58:23.141Z,22.30
2024-02-20T23:00:51.485Z,21.60
2024-02-20T23:03:19.706Z,21.30
2024-02-20T23:05:48.256Z,22.60
2024-02-20T23:08:16.550Z,21.00
2024-02-20T23:10:47.225Z,21.40
2024-02-20T23:13:17.441Z,21.30
2024-02-20T23:15:45.633Z,21.00
2024-02-20T23:18:14.604Z,23.30
2024-02-20T23:20:42.912Z,22.20
2024-02-20T23:23:11.113Z,22.90
2024-02-20T23:25:39.372Z,24.20
2024-02-20T23:28:07.580Z,25.00
2024-02-20T23:30:35.784Z,22.30
2024-02-20T23:33:04.409Z,21.80
2024-02-20T23:35:32.579Z,21.10
2024-02-20T23:38:00.768Z,21.60
2024-02-20T23:40:29.020Z,22.50
2024-02-20T23:42:57.270Z,21.40
2024-02-20T23:45:25.416Z,20.20
2024-02-20T23:47:53.760Z,20.90
2024-02-20T23:50:21.993Z,20.00
2024-02-20T23:52:50.194Z,23.50
2024-02-20T23:55:18.464Z,23.80
2024-02-20T23:57:46.685Z,22.90
